sensor_id;sensor_type;location;lat;lon;timestamp;P1;durP1;ratioP1;P2;durP2;ratioP2
4174;SDS011;2101;48.290;14.382;2023-08-20T01:00:00;22.17;;;6.40;;
4174;SDS011;2101;48.290;14.382;2023-08-20T01:02:29;30.30;;;6.60;;
4174;SDS011;2101;48.290;14.382;2023-08-20T01:04:55;20.83;;;6.20;;
4174;SDS011;2101;48.290;14.382;2023-08-20T01:09:50;22.20;;;5.50;;
4174;SDS011;2101;48.290;14.382;2023-08-20T01:12:32;22.03;;;5.77;;
4174;SDS011;2101;48.290;14.382;2023-08-20T01:15:00;19.80;;;5.67;;
4174;SDS011;2101;48.290;14.382;2023-08-20T01:17:25;24.23;;;6.83;;
4174;SDS011;2101;48.290;14.382;2023-08-20T01:19:51;24.53;;;5.57;;
4174;SDS011;2101;48.290;14.382;2023-08-20T01:28:24;23.17;;;5.27;;
4174;SDS011;2101;48.290;14.382;2023-08-20T01:30:54;20.60;;;5.80;;
4174;SDS011;2101;48.290;14.382;2023-08-20T01:33:24;22.17;;;5.87;;
4174;SDS011;2101;48.290;14.382;2023-08-20T01:35:51;20.10;;;5.80;;
4174;SDS011;2101;48.290;14.382;2023-08-20T01:38:17;22.13;;;6.93;;
4174;SDS011;2101;48.290;14.382;2023-08-20T01:40:46;22.67;;;5.83;;
4174;SDS011;2101;48.290;14.382;2023-08-20T01:43:13;22.90;;;6.40;;
4174;SDS011;2101;48.290;14.382;2023-08-20T01:45:39;24.60;;;7.60;;
4174;SDS011;2101;48.290;14.382;2023-08-20T01:48:05;21.37;;;6.17;;
4174;SDS011;2101;48.290;14.382;2023-08-20T01:50:34;20.83;;;5.53;;
4174;SDS011;2101;48.290;14.382;2023-08-20T01:53:01;21.63;;;6.07;;
4174;SDS011;2101;48.290;14.382;2023-08-20T01:55:35;19.50;;;5.77;;
4174;SDS011;2101;48.290;14.382;2023-08-20T01:58:00;20.23;;;5.97;;
4174;SDS011;2101;48.290;14.382;2023-08-20T02:00:26;22.03;;;6.70;;
4174;SDS011;2101;48.290;14.382;2023-08-20T02:02:53;20.80;;;5.80;;
4174;SDS011;2101;48.290;14.382;2023-08-20T02:05:19;22.20;;;5.70;;
4174;SDS011;2101;48.290;14.382;2023-08-20T02:07:45;21.83;;;5.90;;
4174;SDS011;2101;48.290;14.382;2023-08-20T02:10:10;28.23;;;6.37;;
4174;SDS011;2101;48.290;14.382;2023-08-20T02:12:36;22.77;;;6.40;;
4174;SDS011;2101;48.290;14.382;2023-08-20T02:15:02;19.57;;;5.60;;
4174;SDS011;2101;48.290;14.382;2023-08-20T02:17:29;25.33;;;6.83;;
4174;SDS011;2101;48.290;14.382;2023-08-20T02:19:55;24.30;;;5.77;;
4174;SDS011;2101;48.290;14.382;2023-08-20T02:22:20;21.60;;;6.27;;
4174;SDS011;2101;48.290;14.382;2023-08-20T02:24:46;19.50;;;6.17;;
4174;SDS011;2101;48.290;14.382;2023-08-20T02:27:12;26.63;;;6.63;;
4174;SDS011;2101;48.290;14.382;2023-08-20T02:29:37;21.27;;;6.30;;
4174;SDS011;2101;48.290;14.382;2023-08-20T02:32:03;20.53;;;6.43;;
4174;SDS011;2101;48.290;14.382;2023-08-20T02:34:29;21.30;;;6.33;;
4174;SDS011;2101;48.290;14.382;2023-08-20T02:36:54;23.80;;;6.63;;
4174;SDS011;2101;48.290;14.382;2023-08-20T02:39:20;23.20;;;6.00;;
4174;SDS011;2101;48.290;14.382;2023-08-20T02:41:46;24.43;;;6.50;;
4174;SDS011;2101;48.290;14.382;2023-08-20T02:44:12;22.53;;;6.77;;
4174;SDS011;2101;48.290;14.382;2023-08-20T02:46:38;24.60;;;6.17;;
4174;SDS011;2101;48.290;14.382;2023-08-20T02:49:09;22.50;;;6.43;;
4174;SDS011;2101;48.290;14.382;2023-08-20T02:51:35;23.43;;;5.90;;
4174;SDS011;2101;48.290;14.382;2023-08-20T02:54:01;25.93;;;7.30;;
4174;SDS011;2101;48.290;14.382;2023-08-20T02:56:27;20.90;;;6.27;;
4174;SDS011;2101;48.290;14.382;2023-08-20T02:58:52;22.73;;;6.60;;
4174;SDS011;2101;48.290;14.382;2023-08-20T03:01:19;21.60;;;6.27;;
4174;SDS011;2101;48.290;14.382;2023-08-20T03:03:46;22.80;;;6.30;;
4174;SDS011;2101;48.290;14.382;2023-08-20T03:06:11;24.40;;;6.43;;
4174;SDS011;2101;48.290;14.382;2023-08-20T03:08:37;20.63;;;6.07;;
4174;SDS011;2101;48.290;14.382;2023-08-20T03:11:03;24.60;;;5.83;;
4174;SDS011;2101;48.290;14.382;2023-08-20T03:13:29;23.60;;;7.10;;
4174;SDS011;2101;48.290;14.382;2023-08-20T03:15:54;27.50;;;6.07;;
4174;SDS011;2101;48.290;14.382;2023-08-20T03:18:20;21.40;;;6.90;;
4174;SDS011;2101;48.290;14.382;2023-08-20T03:20:48;23.27;;;6.40;;
4174;SDS011;2101;48.290;14.382;2023-08-20T03:23:14;21.40;;;6.30;;
4174;SDS011;2101;48.290;14.382;2023-08-20T03:25:40;28.20;;;5.63;;
4174;SDS011;2101;48.290;14.382;2023-08-20T03:28:05;21.70;;;6.60;;
4174;SDS011;2101;48.290;14.382;2023-08-20T03:30:31;21.83;;;6.77;;
4174;SDS011;2101;48.290;14.382;2023-08-20T03:32:58;21.33;;;6.43;;
4174;SDS011;2101;48.290;14.382;2023-08-20T03:35:24;21.80;;;6.50;;
4174;SDS011;2101;48.290;14.382;2023-08-20T03:37:50;21.10;;;6.60;;
4174;SDS011;2101;48.290;14.382;2023-08-20T03:40:15;20.60;;;6.73;;
4174;SDS011;2101;48.290;14.382;2023-08-20T03:42:43;21.53;;;6.70;;
4174;SDS011;2101;48.290;14.382;2023-08-20T03:45:09;21.10;;;6.83;;
4174;SDS011;2101;48.290;14.382;2023-08-20T03:47:35;23.87;;;7.43;;
4174;SDS011;2101;48.290;14.382;2023-08-20T03:50:02;29.23;;;7.67;;
4174;SDS011;2101;48.290;14.382;2023-08-20T03:52:34;20.87;;;7.13;;
4174;SDS011;2101;48.290;14.382;2023-08-20T03:55:03;21.80;;;7.43;;
4174;SDS011;2101;48.290;14.382;2023-08-20T03:57:29;24.60;;;7.80;;
4174;SDS011;2101;48.290;14.382;2023-08-20T03:59:54;24.53;;;8.77;;
4174;SDS011;2101;48.290;14.382;2023-08-20T04:02:20;22.30;;;7.63;;
4174;SDS011;2101;48.290;14.382;2023-08-20T04:04:46;23.87;;;8.07;;
4174;SDS011;2101;48.290;14.382;2023-08-20T04:07:11;23.83;;;7.27;;
4174;SDS011;2101;48.290;14.382;2023-08-20T04:09:37;23.67;;;7.20;;
4174;SDS011;2101;48.290;14.382;2023-08-20T04:12:03;22.03;;;6.93;;
4174;SDS011;2101;48.290;14.382;2023-08-20T04:14:30;28.40;;;7.07;;
4174;SDS011;2101;48.290;14.382;2023-08-20T04:16:56;25.60;;;7.40;;
4174;SDS011;2101;48.290;14.382;2023-08-20T04:19:22;22.73;;;7.80;;
4174;SDS011;2101;48.290;14.382;2023-08-20T04:21:47;21.37;;;6.77;;
4174;SDS011;2101;48.290;14.382;2023-08-20T04:24:13;22.07;;;7.30;;
4174;SDS011;2101;48.290;14.382;2023-08-20T04:26:39;26.27;;;7.80;;
4174;SDS011;2101;48.290;14.382;2023-08-20T04:29:05;25.10;;;7.33;;
4174;SDS011;2101;48.290;14.382;2023-08-20T04:31:31;24.37;;;7.60;;
4174;SDS011;2101;48.290;14.382;2023-08-20T04:33:56;29.00;;;7.43;;
4174;SDS011;2101;48.290;14.382;2023-08-20T04:36:22;30.73;;;7.63;;
4174;SDS011;2101;48.290;14.382;2023-08-20T04:38:48;21.20;;;7.13;;
4174;SDS011;2101;48.290;14.382;2023-08-20T04:41:13;22.43;;;7.10;;
4174;SDS011;2101;48.290;14.382;2023-08-20T04:43:39;22.60;;;7.27;;
4174;SDS011;2101;48.290;14.382;2023-08-20T04:46:11;25.00;;;7.97;;
4174;SDS011;2101;48.290;14.382;2023-08-20T04:48:39;22.13;;;7.40;;
4174;SDS011;2101;48.290;14.382;2023-08-20T04:51:08;23.67;;;8.13;;
4174;SDS011;2101;48.290;14.382;2023-08-20T04:53:34;24.00;;;7.90;;
4174;SDS011;2101;48.290;14.382;2023-08-20T04:55:59;21.60;;;7.20;;
4174;SDS011;2101;48.290;14.382;2023-08-20T04:58:25;25.60;;;7.07;;
4174;SDS011;2101;48.290;14.382;2023-08-20T05:00:51;22.93;;;7.27;;
4174;SDS011;2101;48.290;14.382;2023-08-20T05:03:17;22.77;;;7.47;;
4174;SDS011;2101;48.290;14.382;2023-08-20T05:05:47;22.07;;;7.33;;
4174;SDS011;2101;48.290;14.382;2023-08-20T05:08:14;22.00;;;7.07;;
4174;SDS011;2101;48.290;14.382;2023-08-20T05:10:39;20.70;;;6.67;;
4174;SDS011;2101;48.290;14.382;2023-08-20T05:13:05;25.30;;;7.17;;
4174;SDS011;2101;48.290;14.382;2023-08-20T05:15:31;26.97;;;6.73;;
4174;SDS011;2101;48.290;14.382;2023-08-20T05:17:57;21.60;;;6.97;;
4174;SDS011;2101;48.290;14.382;2023-08-20T05:20:22;22.93;;;7.43;;
4174;SDS011;2101;48.290;14.382;2023-08-20T05:22:48;25.63;;;7.60;;
4174;SDS011;2101;48.290;14.382;2023-08-20T05:25:14;30.27;;;7.70;;
4174;SDS011;2101;48.290;14.382;2023-08-20T05:27:39;24.83;;;8.20;;
4174;SDS011;2101;48.290;14.382;2023-08-20T05:30:05;23.97;;;7.50;;
4174;SDS011;2101;48.290;14.382;2023-08-20T05:32:33;23.23;;;7.90;;
4174;SDS011;2101;48.290;14.382;2023-08-20T05:34:59;28.50;;;8.30;;
4174;SDS011;2101;48.290;14.382;2023-08-20T05:37:25;23.43;;;7.83;;
4174;SDS011;2101;48.290;14.382;2023-08-20T05:39:50;22.60;;;7.50;;
4174;SDS011;2101;48.290;14.382;2023-08-20T05:42:16;22.67;;;7.87;;
4174;SDS011;2101;48.290;14.382;2023-08-20T05:44:42;25.83;;;8.20;;
4174;SDS011;2101;48.290;14.382;2023-08-20T05:47:08;26.30;;;8.20;;
4174;SDS011;2101;48.290;14.382;2023-08-20T05:49:33;27.67;;;8.37;;
4174;SDS011;2101;48.290;14.382;2023-08-20T05:51:59;22.30;;;7.20;;
4174;SDS011;2101;48.290;14.382;2023-08-20T05:54:25;20.97;;;6.30;;
4174;SDS011;2101;48.290;14.382;2023-08-20T05:56:51;18.73;;;6.20;;
4174;SDS011;2101;48.290;14.382;2023-08-20T05:59:17;21.20;;;6.30;;
4174;SDS011;2101;48.290;14.382;2023-08-20T06:01:42;23.33;;;6.00;;
4174;SDS011;2101;48.290;14.382;2023-08-20T06:04:08;20.30;;;5.93;;
4174;SDS011;2101;48.290;14.382;2023-08-20T06:06:34;20.37;;;5.50;;
4174;SDS011;2101;48.290;14.382;2023-08-20T06:09:00;20.87;;;6.73;;
4174;SDS011;2101;48.290;14.382;2023-08-20T06:11:26;18.10;;;5.70;;
4174;SDS011;2101;48.290;14.382;2023-08-20T06:13:52;18.60;;;5.77;;
4174;SDS011;2101;48.290;14.382;2023-08-20T06:16:17;21.20;;;6.17;;
4174;SDS011;2101;48.290;14.382;2023-08-20T06:18:43;19.93;;;6.47;;
4174;SDS011;2101;48.290;14.382;2023-08-20T06:21:09;19.67;;;6.68;;
4174;SDS011;2101;48.290;14.382;2023-08-20T06:23:34;22.80;;;8.38;;
4174;SDS011;2101;48.290;14.382;2023-08-20T06:26:00;31.50;;;8.95;;
4174;SDS011;2101;48.290;14.382;2023-08-20T06:28:26;26.52;;;9.15;;
4174;SDS011;2101;48.290;14.382;2023-08-20T06:30:51;26.20;;;9.55;;
4174;SDS011;2101;48.290;14.382;2023-08-20T06:33:17;25.45;;;7.28;;
4174;SDS011;2101;48.290;14.382;2023-08-20T06:35:43;21.13;;;6.68;;
4174;SDS011;2101;48.290;14.382;2023-08-20T06:38:09;19.40;;;6.55;;
4174;SDS011;2101;48.290;14.382;2023-08-20T06:40:35;18.02;;;5.45;;
4174;SDS011;2101;48.290;14.382;2023-08-20T06:43:00;20.90;;;5.78;;
4174;SDS011;2101;48.290;14.382;2023-08-20T06:45:26;16.92;;;5.05;;
4174;SDS011;2101;48.290;14.382;2023-08-20T06:47:52;17.73;;;5.05;;
4174;SDS011;2101;48.290;14.382;2023-08-20T06:50:17;18.83;;;5.32;;
4174;SDS011;2101;48.290;14.382;2023-08-20T06:52:46;18.50;;;5.90;;
4174;SDS011;2101;48.290;14.382;2023-08-20T06:55:12;18.77;;;5.80;;
4174;SDS011;2101;48.290;14.382;2023-08-20T06:57:38;20.85;;;6.43;;
4174;SDS011;2101;48.290;14.382;2023-08-20T07:00:04;17.88;;;5.97;;
4174;SDS011;2101;48.290;14.382;2023-08-20T07:02:31;17.27;;;5.40;;
4174;SDS011;2101;48.290;14.382;2023-08-20T07:04:58;17.27;;;5.20;;
4174;SDS011;2101;48.290;14.382;2023-08-20T07:07:24;16.80;;;4.57;;
4174;SDS011;2101;48.290;14.382;2023-08-20T07:09:50;19.10;;;5.70;;
4174;SDS011;2101;48.290;14.382;2023-08-20T07:12:18;18.30;;;5.53;;
4174;SDS011;2101;48.290;14.382;2023-08-20T07:14:44;17.48;;;5.65;;
4174;SDS011;2101;48.290;14.382;2023-08-20T07:17:09;22.73;;;7.60;;
4174;SDS011;2101;48.290;14.382;2023-08-20T07:19:36;20.23;;;6.60;;
4174;SDS011;2101;48.290;14.382;2023-08-20T07:22:02;28.80;;;8.05;;
4174;SDS011;2101;48.290;14.382;2023-08-20T07:24:27;25.42;;;8.00;;
4174;SDS011;2101;48.290;14.382;2023-08-20T07:26:58;24.52;;;7.30;;
4174;SDS011;2101;48.290;14.382;2023-08-20T07:29:29;34.60;;;7.80;;
4174;SDS011;2101;48.290;14.382;2023-08-20T07:31:55;21.48;;;7.03;;
4174;SDS011;2101;48.290;14.382;2023-08-20T07:34:22;20.77;;;7.53;;
4174;SDS011;2101;48.290;14.382;2023-08-20T07:36:47;33.95;;;7.78;;
4174;SDS011;2101;48.290;14.382;2023-08-20T07:39:13;33.28;;;8.50;;
4174;SDS011;2101;48.290;14.382;2023-08-20T07:41:40;21.10;;;7.35;;
4174;SDS011;2101;48.290;14.382;2023-08-20T10:44:03;15.85;;;4.10;;
4174;SDS011;2101;48.290;14.382;2023-08-20T13:22:59;14.18;;;2.35;;
4174;SDS011;2101;48.290;14.382;2023-08-20T13:25:24;14.30;;;2.20;;
4174;SDS011;2101;48.290;14.382;2023-08-20T13:27:50;15.45;;;2.15;;
4174;SDS011;2101;48.290;14.382;2023-08-20T13:30:16;17.65;;;2.15;;
4174;SDS011;2101;48.290;14.382;2023-08-20T13:32:45;15.45;;;2.35;;
4174;SDS011;2101;48.290;14.382;2023-08-20T13:35:11;14.07;;;2.08;;
4174;SDS011;2101;48.290;14.382;2023-08-20T13:37:36;17.20;;;2.80;;
4174;SDS011;2101;48.290;14.382;2023-08-20T13:40:02;14.23;;;2.38;;
4174;SDS011;2101;48.290;14.382;2023-08-20T13:42:29;14.27;;;2.20;;
4174;SDS011;2101;48.290;14.382;2023-08-20T13:44:58;15.40;;;2.58;;
4174;SDS011;2101;48.290;14.382;2023-08-20T13:47:24;12.98;;;2.33;;
4174;SDS011;2101;48.290;14.382;2023-08-20T13:49:55;14.13;;;2.35;;
4174;SDS011;2101;48.290;14.382;2023-08-20T13:52:20;17.63;;;2.40;;
4174;SDS011;2101;48.290;14.382;2023-08-20T13:54:46;13.77;;;2.63;;
4174;SDS011;2101;48.290;14.382;2023-08-20T13:57:12;13.38;;;2.25;;
4174;SDS011;2101;48.290;14.382;2023-08-20T13:59:38;14.80;;;2.70;;
4174;SDS011;2101;48.290;14.382;2023-08-20T14:02:04;13.23;;;2.45;;
4174;SDS011;2101;48.290;14.382;2023-08-20T14:04:30;13.57;;;2.30;;
4174;SDS011;2101;48.290;14.382;2023-08-20T14:06:56;12.98;;;1.80;;
4174;SDS011;2101;48.290;14.382;2023-08-20T14:09:21;15.90;;;2.13;;
4174;SDS011;2101;48.290;14.382;2023-08-20T14:11:50;15.77;;;2.42;;
4174;SDS011;2101;48.290;14.382;2023-08-20T14:14:16;13.77;;;2.30;;
4174;SDS011;2101;48.290;14.382;2023-08-20T14:16:41;14.15;;;2.55;;
4174;SDS011;2101;48.290;14.382;2023-08-20T14:19:07;13.77;;;2.65;;
4174;SDS011;2101;48.290;14.382;2023-08-20T14:21:33;14.38;;;2.80;;
4174;SDS011;2101;48.290;14.382;2023-08-20T14:23:59;14.10;;;2.75;;
4174;SDS011;2101;48.290;14.382;2023-08-20T14:26:24;13.45;;;2.50;;
4174;SDS011;2101;48.290;14.382;2023-08-20T14:28:50;13.80;;;2.67;;
4174;SDS011;2101;48.290;14.382;2023-08-20T14:31:16;13.43;;;2.55;;
4174;SDS011;2101;48.290;14.382;2023-08-20T14:33:43;14.30;;;2.53;;
4174;SDS011;2101;48.290;14.382;2023-08-20T14:36:09;18.45;;;3.58;;
4174;SDS011;2101;48.290;14.382;2023-08-20T14:38:35;14.52;;;3.17;;
4174;SDS011;2101;48.290;14.382;2023-08-20T14:41:01;13.35;;;2.60;;
4174;SDS011;2101;48.290;14.382;2023-08-20T14:43:27;12.95;;;2.47;;
4174;SDS011;2101;48.290;14.382;2023-08-20T14:45:54;16.42;;;2.75;;
4174;SDS011;2101;48.290;14.382;2023-08-20T14:48:20;13.45;;;2.47;;
4174;SDS011;2101;48.290;14.382;2023-08-20T14:50:53;13.60;;;2.78;;
4174;SDS011;2101;48.290;14.382;2023-08-20T14:53:18;20.65;;;3.28;;
4174;SDS011;2101;48.290;14.382;2023-08-20T14:55:44;14.35;;;2.95;;
4174;SDS011;2101;48.290;14.382;2023-08-20T14:58:11;14.45;;;2.72;;
4174;SDS011;2101;48.290;14.382;2023-08-20T15:00:37;13.95;;;2.78;;
4174;SDS011;2101;48.290;14.382;2023-08-20T15:03:02;15.20;;;3.15;;
4174;SDS011;2101;48.290;14.382;2023-08-20T15:05:29;13.60;;;2.70;;
4174;SDS011;2101;48.290;14.382;2023-08-20T15:07:58;13.98;;;2.95;;
4174;SDS011;2101;48.290;14.382;2023-08-20T15:10:24;13.73;;;2.42;;
4174;SDS011;2101;48.290;14.382;2023-08-20T15:12:51;13.90;;;2.70;;
4174;SDS011;2101;48.290;14.382;2023-08-20T15:15:17;14.05;;;2.72;;
4174;SDS011;2101;48.290;14.382;2023-08-20T15:17:43;13.25;;;2.53;;
4174;SDS011;2101;48.290;14.382;2023-08-20T15:20:08;14.88;;;2.50;;
4174;SDS011;2101;48.290;14.382;2023-08-20T15:22:38;15.88;;;2.90;;
4174;SDS011;2101;48.290;14.382;2023-08-20T15:25:05;14.70;;;2.53;;
4174;SDS011;2101;48.290;14.382;2023-08-20T15:27:33;14.85;;;3.00;;
4174;SDS011;2101;48.290;14.382;2023-08-20T15:29:59;14.40;;;2.50;;
4174;SDS011;2101;48.290;14.382;2023-08-20T15:32:25;25.90;;;3.03;;
4174;SDS011;2101;48.290;14.382;2023-08-20T15:34:53;14.55;;;2.88;;
4174;SDS011;2101;48.290;14.382;2023-08-20T15:37:19;16.95;;;2.92;;
4174;SDS011;2101;48.290;14.382;2023-08-20T15:39:45;15.25;;;3.03;;
4174;SDS011;2101;48.290;14.382;2023-08-20T15:42:11;15.65;;;2.92;;
4174;SDS011;2101;48.290;14.382;2023-08-20T15:44:40;16.38;;;3.22;;
4174;SDS011;2101;48.290;14.382;2023-08-20T15:47:06;14.45;;;2.28;;
4174;SDS011;2101;48.290;14.382;2023-08-20T15:49:32;16.38;;;2.70;;
4174;SDS011;2101;48.290;14.382;2023-08-20T15:51:58;17.15;;;3.28;;
4174;SDS011;2101;48.290;14.382;2023-08-20T15:54:24;14.95;;;2.75;;
4174;SDS011;2101;48.290;14.382;2023-08-20T15:56:52;16.58;;;2.58;;
4174;SDS011;2101;48.290;14.382;2023-08-20T15:59:18;13.13;;;2.35;;
4174;SDS011;2101;48.290;14.382;2023-08-20T16:01:44;24.10;;;3.05;;
4174;SDS011;2101;48.290;14.382;2023-08-20T16:04:10;14.05;;;2.55;;
4174;SDS011;2101;48.290;14.382;2023-08-20T16:53:12;15.27;;;2.83;;
4174;SDS011;2101;48.290;14.382;2023-08-20T16:55:49;16.67;;;3.10;;
4174;SDS011;2101;48.290;14.382;2023-08-20T17:43:18;16.85;;;2.75;;
4174;SDS011;2101;48.290;14.382;2023-08-20T18:08:02;17.35;;;3.40;;
4174;SDS011;2101;48.290;14.382;2023-08-20T18:43:21;85.77;;;4.20;;
4174;SDS011;2101;48.290;14.382;2023-08-20T20:09:41;20.63;;;4.00;;
4174;SDS011;2101;48.290;14.382;2023-08-20T20:12:08;18.00;;;3.53;;
4174;SDS011;2101;48.290;14.382;2023-08-20T20:14:33;18.57;;;4.03;;
4174;SDS011;2101;48.290;14.382;2023-08-20T20:16:59;19.93;;;3.80;;
4174;SDS011;2101;48.290;14.382;2023-08-20T20:19:25;16.37;;;3.53;;
4174;SDS011;2101;48.290;14.382;2023-08-20T20:21:51;24.23;;;5.10;;
4174;SDS011;2101;48.290;14.382;2023-08-20T20:24:19;17.60;;;4.23;;
4174;SDS011;2101;48.290;14.382;2023-08-20T20:26:47;16.77;;;3.43;;
4174;SDS011;2101;48.290;14.382;2023-08-20T20:29:13;20.70;;;3.90;;
4174;SDS011;2101;48.290;14.382;2023-08-20T20:31:39;23.33;;;4.40;;
4174;SDS011;2101;48.290;14.382;2023-08-20T20:34:05;19.13;;;4.27;;
4174;SDS011;2101;48.290;14.382;2023-08-20T20:36:30;17.80;;;3.97;;
4174;SDS011;2101;48.290;14.382;2023-08-20T20:38:56;20.73;;;4.03;;
4174;SDS011;2101;48.290;14.382;2023-08-20T20:41:22;18.67;;;4.23;;
4174;SDS011;2101;48.290;14.382;2023-08-20T20:43:47;18.83;;;3.60;;
4174;SDS011;2101;48.290;14.382;2023-08-20T20:46:13;18.10;;;3.50;;
4174;SDS011;2101;48.290;14.382;2023-08-20T20:48:42;17.37;;;3.87;;
4174;SDS011;2101;48.290;14.382;2023-08-20T20:51:07;18.40;;;4.00;;
4174;SDS011;2101;48.290;14.382;2023-08-20T20:53:33;16.30;;;3.27;;
4174;SDS011;2101;48.290;14.382;2023-08-20T20:55:59;18.17;;;3.97;;
4174;SDS011;2101;48.290;14.382;2023-08-20T20:58:25;17.77;;;4.03;;
4174;SDS011;2101;48.290;14.382;2023-08-20T21:00:50;17.27;;;4.07;;
4174;SDS011;2101;48.290;14.382;2023-08-20T21:03:20;17.00;;;4.00;;
4174;SDS011;2101;48.290;14.382;2023-08-20T21:05:46;19.13;;;3.87;;
4174;SDS011;2101;48.290;14.382;2023-08-20T21:08:12;20.10;;;3.93;;
4174;SDS011;2101;48.290;14.382;2023-08-20T21:10:38;17.83;;;4.00;;
4174;SDS011;2101;48.290;14.382;2023-08-20T21:13:04;18.00;;;4.23;;
4174;SDS011;2101;48.290;14.382;2023-08-20T21:15:32;18.93;;;4.00;;
4174;SDS011;2101;48.290;14.382;2023-08-20T21:17:57;21.37;;;4.77;;
4174;SDS011;2101;48.290;14.382;2023-08-20T21:20:23;17.23;;;4.10;;
4174;SDS011;2101;48.290;14.382;2023-08-20T21:22:49;20.90;;;4.00;;
4174;SDS011;2101;48.290;14.382;2023-08-20T21:25:14;20.80;;;5.30;;
4174;SDS011;2101;48.290;14.382;2023-08-20T21:27:40;20.97;;;4.97;;
4174;SDS011;2101;48.290;14.382;2023-08-20T21:30:07;18.60;;;4.80;;
4174;SDS011;2101;48.290;14.382;2023-08-20T21:32:33;18.00;;;4.73;;
4174;SDS011;2101;48.290;14.382;2023-08-20T21:34:59;18.27;;;4.20;;
4174;SDS011;2101;48.290;14.382;2023-08-20T21:37:24;18.27;;;4.90;;
4174;SDS011;2101;48.290;14.382;2023-08-20T21:39:50;17.90;;;4.23;;
4174;SDS011;2101;48.290;14.382;2023-08-20T21:42:16;18.90;;;4.57;;
4174;SDS011;2101;48.290;14.382;2023-08-20T21:44:42;18.87;;;4.70;;
4174;SDS011;2101;48.290;14.382;2023-08-20T21:47:20;21.13;;;4.77;;
4174;SDS011;2101;48.290;14.382;2023-08-20T21:49:47;20.20;;;4.77;;
4174;SDS011;2101;48.290;14.382;2023-08-20T21:52:14;18.90;;;5.30;;
4174;SDS011;2101;48.290;14.382;2023-08-20T21:54:43;19.20;;;5.23;;
4174;SDS011;2101;48.290;14.382;2023-08-20T21:57:09;19.67;;;5.30;;
4174;SDS011;2101;48.290;14.382;2023-08-20T21:59:42;21.03;;;4.80;;
4174;SDS011;2101;48.290;14.382;2023-08-20T22:02:11;22.07;;;5.53;;
4174;SDS011;2101;48.290;14.382;2023-08-20T22:04:37;21.27;;;5.13;;
4174;SDS011;2101;48.290;14.382;2023-08-20T22:07:03;22.43;;;6.00;;
4174;SDS011;2101;48.290;14.382;2023-08-20T22:09:31;18.63;;;4.90;;
4174;SDS011;2101;48.290;14.382;2023-08-20T22:11:57;20.67;;;4.87;;
4174;SDS011;2101;48.290;14.382;2023-08-20T22:14:24;18.57;;;5.17;;
4174;SDS011;2101;48.290;14.382;2023-08-20T22:16:53;20.80;;;4.80;;
4174;SDS011;2101;48.290;14.382;2023-08-20T22:19:19;18.57;;;4.93;;
4174;SDS011;2101;48.290;14.382;2023-08-20T22:21:46;20.90;;;4.30;;
4174;SDS011;2101;48.290;14.382;2023-08-20T22:24:12;22.67;;;5.60;;
4174;SDS011;2101;48.290;14.382;2023-08-20T22:26:48;19.03;;;4.77;;
4174;SDS011;2101;48.290;14.382;2023-08-20T22:29:16;17.93;;;4.60;;
4174;SDS011;2101;48.290;14.382;2023-08-20T22:31:45;18.33;;;4.70;;
4174;SDS011;2101;48.290;14.382;2023-08-20T22:34:11;24.80;;;5.10;;
4174;SDS011;2101;48.290;14.382;2023-08-20T22:36:37;20.33;;;4.53;;
4174;SDS011;2101;48.290;14.382;2023-08-20T22:39:03;17.70;;;4.57;;
4174;SDS011;2101;48.290;14.382;2023-08-20T22:41:30;18.00;;;4.00;;
4174;SDS011;2101;48.290;14.382;2023-08-20T22:43:56;17.47;;;4.73;;
4174;SDS011;2101;48.290;14.382;2023-08-20T22:46:22;17.80;;;4.50;;
4174;SDS011;2101;48.290;14.382;2023-08-20T22:48:50;18.37;;;4.90;;
4174;SDS011;2101;48.290;14.382;2023-08-20T22:51:16;20.33;;;3.80;;
4174;SDS011;2101;48.290;14.382;2023-08-20T22:53:42;19.83;;;4.73;;
4174;SDS011;2101;48.290;14.382;2023-08-20T22:56:07;18.17;;;4.50;;
4174;SDS011;2101;48.290;14.382;2023-08-20T22:58:33;18.67;;;4.80;;
4174;SDS011;2101;48.290;14.382;2023-08-20T23:00:59;22.13;;;5.00;;
4174;SDS011;2101;48.290;14.382;2023-08-20T23:03:24;22.00;;;4.57;;
4174;SDS011;2101;48.290;14.382;2023-08-20T23:05:50;19.13;;;5.23;;
4174;SDS011;2101;48.290;14.382;2023-08-20T23:08:16;17.77;;;4.80;;
4174;SDS011;2101;48.290;14.382;2023-08-20T23:10:42;19.17;;;5.17;;
4174;SDS011;2101;48.290;14.382;2023-08-20T23:13:08;18.27;;;4.70;;
4174;SDS011;2101;48.290;14.382;2023-08-20T23:15:33;19.60;;;5.10;;
4174;SDS011;2101;48.290;14.382;2023-08-20T23:17:59;28.50;;;4.90;;
4174;SDS011;2101;48.290;14.382;2023-08-20T23:20:25;18.37;;;4.50;;
4174;SDS011;2101;48.290;14.382;2023-08-20T23:22:51;21.90;;;5.40;;
4174;SDS011;2101;48.290;14.382;2023-08-20T23:25:16;21.67;;;5.00;;
4174;SDS011;2101;48.290;14.382;2023-08-20T23:27:42;23.10;;;4.80;;
4174;SDS011;2101;48.290;14.382;2023-08-20T23:30:11;20.23;;;5.20;;
4174;SDS011;2101;48.290;14.382;2023-08-20T23:32:37;21.57;;;5.17;;
4174;SDS011;2101;48.290;14.382;2023-08-20T23:35:03;19.97;;;5.13;;
4174;SDS011;2101;48.290;14.382;2023-08-20T23:37:30;19.43;;;5.50;;
4174;SDS011;2101;48.290;14.382;2023-08-20T23:39:56;23.33;;;5.77;;
4174;SDS011;2101;48.290;14.382;2023-08-20T23:42:22;20.10;;;4.97;;
4174;SDS011;2101;48.290;14.382;2023-08-20T23:44:48;30.23;;;4.73;;
4174;SDS011;2101;48.290;14.382;2023-08-20T23:47:13;20.77;;;5.47;;
4174;SDS011;2101;48.290;14.382;2023-08-20T23:49:39;21.07;;;4.93;;
4174;SDS011;2101;48.290;14.382;2023-08-20T23:52:05;19.43;;;5.20;;
4174;SDS011;2101;48.290;14.382;2023-08-20T23:54:31;23.13;;;6.03;;
4174;SDS011;2101;48.290;14.382;2023-08-20T23:56:56;22.83;;;5.17;;
4174;SDS011;2101;48.290;14.382;2023-08-20T23:59:25;22.57;;;5.50;;
